sensor_id;sensor_type;location;lat;lon;timestamp;temperature;humidity
23827;DHT22;12094;50.822;4.376;2023-07-13T00:01:56;17.10;99.90
23827;DHT22;12094;50.822;4.376;2023-07-13T00:04:25;17.10;99.90
23827;DHT22;12094;50.822;4.376;2023-07-13T00:06:52;17.00;99.90
23827;DHT22;12094;50.822;4.376;2023-07-13T00:09:20;17.10;99.90
23827;DHT22;12094;50.822;4.376;2023-07-13T00:11:55;17.00;99.90
23827;DHT22;12094;50.822;4.376;2023-07-13T00:14:25;17.10;99.90
23827;DHT22;12094;50.822;4.376;2023-07-13T00:16:53;16.90;99.90
23827;DHT22;12094;50.822;4.376;2023-07-13T00:19:21;16.90;99.90
23827;DHT22;12094;50.822;4.376;2023-07-13T00:21:52;16.90;99.90
23827;DHT22;12094;50.822;4.376;2023-07-13T00:24:22;16.90;99.90
23827;DHT22;12094;50.822;4.376;2023-07-13T00:26:51;16.90;99.90
23827;DHT22;12094;50.822;4.376;2023-07-13T00:29:18;16.80;99.90
23827;DHT22;12094;50.822;4.376;2023-07-13T00:31:47;16.80;99.90
23827;DHT22;12094;50.822;4.376;2023-07-13T00:34:16;16.80;99.90
23827;DHT22;12094;50.822;4.376;2023-07-13T00:36:43;16.70;99.90
23827;DHT22;12094;50.822;4.376;2023-07-13T00:39:10;16.80;99.90
23827;DHT22;12094;50.822;4.376;2023-07-13T00:41:37;16.70;99.90
23827;DHT22;12094;50.822;4.376;2023-07-13T00:44:04;16.70;99.90
23827;DHT22;12094;50.822;4.376;2023-07-13T00:46:33;16.70;99.90
23827;DHT22;12094;50.822;4.376;2023-07-13T00:49:09;16.60;99.90
23827;DHT22;12094;50.822;4.376;2023-07-13T00:54:17;16.30;99.90
23827;DHT22;12094;50.822;4.376;2023-07-13T00:56:46;16.30;99.90
23827;DHT22;12094;50.822;4.376;2023-07-13T00:59:15;16.30;99.90
23827;DHT22;12094;50.822;4.376;2023-07-13T01:01:45;16.30;99.90
23827;DHT22;12094;50.822;4.376;2023-07-13T01:04:13;16.30;99.90
23827;DHT22;12094;50.822;4.376;2023-07-13T01:06:43;16.30;99.90
23827;DHT22;12094;50.822;4.376;2023-07-13T01:09:11;16.30;99.90
23827;DHT22;12094;50.822;4.376;2023-07-13T01:11:40;16.30;99.90
23827;DHT22;12094;50.822;4.376;2023-07-13T01:14:09;16.40;99.90
23827;DHT22;12094;50.822;4.376;2023-07-13T01:16:37;16.30;99.90
23827;DHT22;12094;50.822;4.376;2023-07-13T01:22:11;16.30;99.90
23827;DHT22;12094;50.822;4.376;2023-07-13T01:24:42;16.30;99.90
23827;DHT22;12094;50.822;4.376;2023-07-13T01:27:14;16.30;99.90
23827;DHT22;12094;50.822;4.376;2023-07-13T01:29:44;16.20;99.90
23827;DHT22;12094;50.822;4.376;2023-07-13T01:32:24;16.20;99.90
23827;DHT22;12094;50.822;4.376;2023-07-13T01:34:54;16.10;99.90
23827;DHT22;12094;50.822;4.376;2023-07-13T01:37:24;16.10;99.90
23827;DHT22;12094;50.822;4.376;2023-07-13T01:39:51;16.10;99.90
23827;DHT22;12094;50.822;4.376;2023-07-13T01:42:19;16.10;99.90
23827;DHT22;12094;50.822;4.376;2023-07-13T01:44:47;16.10;99.90
23827;DHT22;12094;50.822;4.376;2023-07-13T01:47:14;16.10;99.90
23827;DHT22;12094;50.822;4.376;2023-07-13T01:49:41;16.10;99.90
23827;DHT22;12094;50.822;4.376;2023-07-13T01:52:08;16.10;99.90
23827;DHT22;12094;50.822;4.376;2023-07-13T01:54:35;16.00;99.90
23827;DHT22;12094;50.822;4.376;2023-07-13T01:57:02;16.00;99.90
23827;DHT22;12094;50.822;4.376;2023-07-13T01:59:30;16.00;99.90
23827;DHT22;12094;50.822;4.376;2023-07-13T02:01:59;16.10;99.90
23827;DHT22;12094;50.822;4.376;2023-07-13T02:04:26;16.00;99.90
23827;DHT22;12094;50.822;4.376;2023-07-13T02:06:54;16.00;99.90
23827;DHT22;12094;50.822;4.376;2023-07-13T02:09:28;15.90;99.90
23827;DHT22;12094;50.822;4.376;2023-07-13T02:11:55;15.90;99.90
23827;DHT22;12094;50.822;4.376;2023-07-13T02:14:22;15.90;99.90
23827;DHT22;12094;50.822;4.376;2023-07-13T02:16:49;15.90;99.90
23827;DHT22;12094;50.822;4.376;2023-07-13T02:19:16;15.90;99.90
23827;DHT22;12094;50.822;4.376;2023-07-13T02:21:43;15.80;99.90
23827;DHT22;12094;50.822;4.376;2023-07-13T02:24:11;15.80;99.90
23827;DHT22;12094;50.822;4.376;2023-07-13T02:26:44;15.80;99.90
23827;DHT22;12094;50.822;4.376;2023-07-13T02:29:11;15.80;99.90
23827;DHT22;12094;50.822;4.376;2023-07-13T02:31:38;15.70;99.90
23827;DHT22;12094;50.822;4.376;2023-07-13T02:34:06;15.70;99.90
23827;DHT22;12094;50.822;4.376;2023-07-13T02:36:36;15.80;99.90
23827;DHT22;12094;50.822;4.376;2023-07-13T02:39:04;15.70;99.90
23827;DHT22;12094;50.822;4.376;2023-07-13T02:41:35;15.70;99.90
23827;DHT22;12094;50.822;4.376;2023-07-13T02:44:02;15.70;99.90
23827;DHT22;12094;50.822;4.376;2023-07-13T02:46:33;15.70;99.90
23827;DHT22;12094;50.822;4.376;2023-07-13T02:49:01;15.60;99.90
23827;DHT22;12094;50.822;4.376;2023-07-13T02:51:28;15.50;99.90
23827;DHT22;12094;50.822;4.376;2023-07-13T02:53:55;15.50;99.90
23827;DHT22;12094;50.822;4.376;2023-07-13T02:56:25;15.50;99.90
23827;DHT22;12094;50.822;4.376;2023-07-13T02:58:54;15.50;99.90
23827;DHT22;12094;50.822;4.376;2023-07-13T03:01:21;15.50;99.90
23827;DHT22;12094;50.822;4.376;2023-07-13T03:03:50;15.60;99.90
23827;DHT22;12094;50.822;4.376;2023-07-13T03:06:20;15.40;99.90
23827;DHT22;12094;50.822;4.376;2023-07-13T03:08:51;15.50;99.90
23827;DHT22;12094;50.822;4.376;2023-07-13T03:11:20;15.50;99.90
23827;DHT22;12094;50.822;4.376;2023-07-13T03:13:54;15.50;99.90
23827;DHT22;12094;50.822;4.376;2023-07-13T03:16:24;15.50;99.90
23827;DHT22;12094;50.822;4.376;2023-07-13T03:18:53;15.50;99.90
23827;DHT22;12094;50.822;4.376;2023-07-13T03:21:21;15.50;99.90
23827;DHT22;12094;50.822;4.376;2023-07-13T03:23:48;15.40;99.90
23827;DHT22;12094;50.822;4.376;2023-07-13T03:26:18;15.50;99.90
23827;DHT22;12094;50.822;4.376;2023-07-13T03:28:47;15.50;99.90
23827;DHT22;12094;50.822;4.376;2023-07-13T03:31:22;15.40;99.90
23827;DHT22;12094;50.822;4.376;2023-07-13T03:33:50;15.40;99.90
23827;DHT22;12094;50.822;4.376;2023-07-13T03:36:24;15.40;99.90
23827;DHT22;12094;50.822;4.376;2023-07-13T03:38:58;15.30;99.90
23827;DHT22;12094;50.822;4.376;2023-07-13T03:41:34;15.30;99.90
23827;DHT22;12094;50.822;4.376;2023-07-13T03:44:02;15.40;99.90
23827;DHT22;12094;50.822;4.376;2023-07-13T03:46:31;15.30;99.90
23827;DHT22;12094;50.822;4.376;2023-07-13T03:48:58;15.40;99.90
23827;DHT22;12094;50.822;4.376;2023-07-13T03:51:25;15.40;99.90
23827;DHT22;12094;50.822;4.376;2023-07-13T03:53:53;15.40;99.90
23827;DHT22;12094;50.822;4.376;2023-07-13T03:56:21;15.30;99.90
23827;DHT22;12094;50.822;4.376;2023-07-13T03:58:50;15.40;99.90
23827;DHT22;12094;50.822;4.376;2023-07-13T04:01:20;15.40;99.90
23827;DHT22;12094;50.822;4.376;2023-07-13T04:03:49;15.40;99.90
23827;DHT22;12094;50.822;4.376;2023-07-13T04:06:20;15.50;99.90
23827;DHT22;12094;50.822;4.376;2023-07-13T04:08:58;15.40;99.90
23827;DHT22;12094;50.822;4.376;2023-07-13T04:11:30;15.50;99.90
23827;DHT22;12094;50.822;4.376;2023-07-13T04:14:00;15.50;99.90
23827;DHT22;12094;50.822;4.376;2023-07-13T04:16:28;15.50;99.90
23827;DHT22;12094;50.822;4.376;2023-07-13T04:18:56;15.50;99.90
23827;DHT22;12094;50.822;4.376;2023-07-13T04:21:29;15.50;99.90
23827;DHT22;12094;50.822;4.376;2023-07-13T04:23:57;15.70;99.90
23827;DHT22;12094;50.822;4.376;2023-07-13T04:26:26;15.70;99.90
23827;DHT22;12094;50.822;4.376;2023-07-13T04:28:53;15.70;99.90
23827;DHT22;12094;50.822;4.376;2023-07-13T04:31:21;15.70;99.90
23827;DHT22;12094;50.822;4.376;2023-07-13T04:33:49;15.80;99.90
23827;DHT22;12094;50.822;4.376;2023-07-13T04:36:17;15.70;99.90
23827;DHT22;12094;50.822;4.376;2023-07-13T04:38:44;15.80;99.90
23827;DHT22;12094;50.822;4.376;2023-07-13T04:41:15;15.70;99.90
23827;DHT22;12094;50.822;4.376;2023-07-13T04:43:43;15.80;99.90
23827;DHT22;12094;50.822;4.376;2023-07-13T04:46:12;15.90;99.90
23827;DHT22;12094;50.822;4.376;2023-07-13T04:48:40;16.00;99.90
23827;DHT22;12094;50.822;4.376;2023-07-13T04:51:08;16.00;99.90
23827;DHT22;12094;50.822;4.376;2023-07-13T04:53:36;16.00;99.90
23827;DHT22;12094;50.822;4.376;2023-07-13T04:56:03;16.10;99.90
23827;DHT22;12094;50.822;4.376;2023-07-13T04:58:30;16.10;99.90
23827;DHT22;12094;50.822;4.376;2023-07-13T05:01:05;16.00;99.90
23827;DHT22;12094;50.822;4.376;2023-07-13T05:03:33;15.90;99.90
23827;DHT22;12094;50.822;4.376;2023-07-13T05:06:04;16.00;99.90
23827;DHT22;12094;50.822;4.376;2023-07-13T05:08:32;16.00;99.90
23827;DHT22;12094;50.822;4.376;2023-07-13T05:11:00;16.00;99.90
23827;DHT22;12094;50.822;4.376;2023-07-13T05:13:28;15.80;99.90
23827;DHT22;12094;50.822;4.376;2023-07-13T05:15:59;15.90;99.90
23827;DHT22;12094;50.822;4.376;2023-07-13T05:18:28;15.90;99.90
23827;DHT22;12094;50.822;4.376;2023-07-13T05:21:04;16.00;99.90
23827;DHT22;12094;50.822;4.376;2023-07-13T05:23:33;16.00;99.90
23827;DHT22;12094;50.822;4.376;2023-07-13T05:26:03;16.10;99.90
23827;DHT22;12094;50.822;4.376;2023-07-13T05:28:34;16.00;99.90
23827;DHT22;12094;50.822;4.376;2023-07-13T05:31:01;16.10;99.90
23827;DHT22;12094;50.822;4.376;2023-07-13T05:33:28;16.20;99.90
23827;DHT22;12094;50.822;4.376;2023-07-13T05:35:56;16.20;99.90
23827;DHT22;12094;50.822;4.376;2023-07-13T05:38:25;16.20;99.90
23827;DHT22;12094;50.822;4.376;2023-07-13T05:40:54;16.20;99.90
23827;DHT22;12094;50.822;4.376;2023-07-13T05:43:23;16.20;99.90
23827;DHT22;12094;50.822;4.376;2023-07-13T05:45:53;16.30;99.90
23827;DHT22;12094;50.822;4.376;2023-07-13T05:48:20;16.30;99.90
23827;DHT22;12094;50.822;4.376;2023-07-13T05:50:48;16.40;99.90
23827;DHT22;12094;50.822;4.376;2023-07-13T05:53:16;16.30;99.90
23827;DHT22;12094;50.822;4.376;2023-07-13T05:55:44;16.40;99.90
23827;DHT22;12094;50.822;4.376;2023-07-13T05:58:16;16.50;99.90
23827;DHT22;12094;50.822;4.376;2023-07-13T06:00:47;16.50;99.90
23827;DHT22;12094;50.822;4.376;2023-07-13T06:03:15;16.60;99.90
23827;DHT22;12094;50.822;4.376;2023-07-13T06:05:45;16.60;99.90
23827;DHT22;12094;50.822;4.376;2023-07-13T06:08:14;16.70;99.90
23827;DHT22;12094;50.822;4.376;2023-07-13T06:10:41;16.80;99.90
23827;DHT22;12094;50.822;4.376;2023-07-13T06:13:09;16.90;99.90
23827;DHT22;12094;50.822;4.376;2023-07-13T06:15:50;16.90;99.90
23827;DHT22;12094;50.822;4.376;2023-07-13T06:18:18;16.90;99.90
23827;DHT22;12094;50.822;4.376;2023-07-13T06:20:48;17.00;99.90
23827;DHT22;12094;50.822;4.376;2023-07-13T06:23:19;17.00;99.90
23827;DHT22;12094;50.822;4.376;2023-07-13T06:25:48;17.00;99.90
23827;DHT22;12094;50.822;4.376;2023-07-13T06:28:15;16.80;99.90
23827;DHT22;12094;50.822;4.376;2023-07-13T06:30:42;16.90;99.90
23827;DHT22;12094;50.822;4.376;2023-07-13T06:33:10;17.00;99.90
23827;DHT22;12094;50.822;4.376;2023-07-13T06:35:37;17.10;99.90
23827;DHT22;12094;50.822;4.376;2023-07-13T06:38:04;17.10;99.90
23827;DHT22;12094;50.822;4.376;2023-07-13T06:40:31;17.00;99.90
23827;DHT22;12094;50.822;4.376;2023-07-13T06:42:58;17.20;99.90
23827;DHT22;12094;50.822;4.376;2023-07-13T06:45:25;17.00;99.90
23827;DHT22;12094;50.822;4.376;2023-07-13T06:47:52;16.80;99.90
23827;DHT22;12094;50.822;4.376;2023-07-13T06:50:19;16.80;99.90
23827;DHT22;12094;50.822;4.376;2023-07-13T06:52:47;17.00;99.90
23827;DHT22;12094;50.822;4.376;2023-07-13T06:55:29;17.10;99.90
23827;DHT22;12094;50.822;4.376;2023-07-13T06:57:59;17.20;99.90
23827;DHT22;12094;50.822;4.376;2023-07-13T07:00:31;17.30;99.90
23827;DHT22;12094;50.822;4.376;2023-07-13T07:03:00;17.60;99.90
23827;DHT22;12094;50.822;4.376;2023-07-13T07:05:29;17.50;99.90
23827;DHT22;12094;50.822;4.376;2023-07-13T07:07:57;17.70;99.90
23827;DHT22;12094;50.822;4.376;2023-07-13T07:10:36;17.90;99.90
23827;DHT22;12094;50.822;4.376;2023-07-13T07:13:06;17.90;99.90
23827;DHT22;12094;50.822;4.376;2023-07-13T07:16:05;18.00;99.90
23827;DHT22;12094;50.822;4.376;2023-07-13T07:18:33;18.20;99.90
23827;DHT22;12094;50.822;4.376;2023-07-13T07:21:01;18.30;99.90
23827;DHT22;12094;50.822;4.376;2023-07-13T07:23:32;18.30;99.90
23827;DHT22;12094;50.822;4.376;2023-07-13T07:26:01;18.30;99.90
23827;DHT22;12094;50.822;4.376;2023-07-13T07:28:28;18.30;99.90
23827;DHT22;12094;50.822;4.376;2023-07-13T07:31:08;18.20;99.90
23827;DHT22;12094;50.822;4.376;2023-07-13T07:33:39;18.20;99.90
23827;DHT22;12094;50.822;4.376;2023-07-13T07:36:06;18.10;99.90
23827;DHT22;12094;50.822;4.376;2023-07-13T07:38:38;17.90;99.90
23827;DHT22;12094;50.822;4.376;2023-07-13T07:41:05;17.90;99.90
23827;DHT22;12094;50.822;4.376;2023-07-13T07:43:36;17.90;99.90
23827;DHT22;12094;50.822;4.376;2023-07-13T07:46:03;18.10;99.90
23827;DHT22;12094;50.822;4.376;2023-07-13T07:48:31;18.20;99.90
23827;DHT22;12094;50.822;4.376;2023-07-13T07:50:59;18.40;99.90
23827;DHT22;12094;50.822;4.376;2023-07-13T07:53:28;18.50;99.90
23827;DHT22;12094;50.822;4.376;2023-07-13T07:55:58;18.60;99.90
23827;DHT22;12094;50.822;4.376;2023-07-13T07:58:46;18.30;99.90
23827;DHT22;12094;50.822;4.376;2023-07-13T08:01:17;18.30;99.90
23827;DHT22;12094;50.822;4.376;2023-07-13T08:03:58;18.30;99.90
23827;DHT22;12094;50.822;4.376;2023-07-13T08:06:29;18.30;99.90
23827;DHT22;12094;50.822;4.376;2023-07-13T08:09:11;18.40;99.90
23827;DHT22;12094;50.822;4.376;2023-07-13T08:11:38;18.50;99.90
23827;DHT22;12094;50.822;4.376;2023-07-13T08:14:10;18.50;99.90
23827;DHT22;12094;50.822;4.376;2023-07-13T08:16:38;18.60;99.90
23827;DHT22;12094;50.822;4.376;2023-07-13T08:19:05;18.40;99.90
23827;DHT22;12094;50.822;4.376;2023-07-13T08:21:32;18.40;99.90
23827;DHT22;12094;50.822;4.376;2023-07-13T08:23:59;18.50;99.90
23827;DHT22;12094;50.822;4.376;2023-07-13T08:26:27;18.90;99.90
23827;DHT22;12094;50.822;4.376;2023-07-13T08:28:54;19.00;99.90
23827;DHT22;12094;50.822;4.376;2023-07-13T08:31:21;18.90;99.90
23827;DHT22;12094;50.822;4.376;2023-07-13T08:33:48;18.90;99.90
23827;DHT22;12094;50.822;4.376;2023-07-13T08:36:14;18.90;99.90
23827;DHT22;12094;50.822;4.376;2023-07-13T08:38:41;19.00;99.90
23827;DHT22;12094;50.822;4.376;2023-07-13T08:41:16;19.30;99.90
23827;DHT22;12094;50.822;4.376;2023-07-13T08:43:54;19.60;99.90
23827;DHT22;12094;50.822;4.376;2023-07-13T08:46:33;19.60;99.90
23827;DHT22;12094;50.822;4.376;2023-07-13T08:49:05;19.50;99.90
23827;DHT22;12094;50.822;4.376;2023-07-13T08:51:46;19.60;99.90
23827;DHT22;12094;50.822;4.376;2023-07-13T08:54:26;19.60;99.90
23827;DHT22;12094;50.822;4.376;2023-07-13T08:56:56;19.90;99.90
23827;DHT22;12094;50.822;4.376;2023-07-13T08:59:27;20.10;99.90
23827;DHT22;12094;50.822;4.376;2023-07-13T09:04:39;20.10;99.90
23827;DHT22;12094;50.822;4.376;2023-07-13T09:10:07;20.20;99.90
23827;DHT22;12094;50.822;4.376;2023-07-13T09:15:46;19.80;99.90
23827;DHT22;12094;50.822;4.376;2023-07-13T09:21:03;19.80;99.90
23827;DHT22;12094;50.822;4.376;2023-07-13T09:23:32;20.00;99.90
23827;DHT22;12094;50.822;4.376;2023-07-13T09:26:04;20.20;99.90
23827;DHT22;12094;50.822;4.376;2023-07-13T09:28:39;20.20;99.90
23827;DHT22;12094;50.822;4.376;2023-07-13T09:31:19;20.20;99.90
23827;DHT22;12094;50.822;4.376;2023-07-13T09:33:49;20.30;99.90
23827;DHT22;12094;50.822;4.376;2023-07-13T09:36:24;20.40;99.90
23827;DHT22;12094;50.822;4.376;2023-07-13T09:47:19;20.20;99.90
23827;DHT22;12094;50.822;4.376;2023-07-13T09:50:02;20.30;99.90
23827;DHT22;12094;50.822;4.376;2023-07-13T09:52:46;20.50;99.90
23827;DHT22;12094;50.822;4.376;2023-07-13T09:55:32;20.60;99.90
23827;DHT22;12094;50.822;4.376;2023-07-13T10:00:53;21.30;99.90
23827;DHT22;12094;50.822;4.376;2023-07-13T10:06:25;22.00;99.90
23827;DHT22;12094;50.822;4.376;2023-07-13T10:08:56;21.20;99.90
23827;DHT22;12094;50.822;4.376;2023-07-13T10:11:28;20.80;99.90
23827;DHT22;12094;50.822;4.376;2023-07-13T10:16:39;20.60;99.90
23827;DHT22;12094;50.822;4.376;2023-07-13T10:19:22;20.70;99.90
23827;DHT22;12094;50.822;4.376;2023-07-13T10:21:57;21.00;99.90
23827;DHT22;12094;50.822;4.376;2023-07-13T10:24:29;21.20;99.90
23827;DHT22;12094;50.822;4.376;2023-07-13T10:27:15;21.50;99.90
23827;DHT22;12094;50.822;4.376;2023-07-13T10:32:13;22.10;99.90
23827;DHT22;12094;50.822;4.376;2023-07-13T10:34:45;22.40;99.90
23827;DHT22;12094;50.822;4.376;2023-07-13T10:37:20;22.30;99.90
23827;DHT22;12094;50.822;4.376;2023-07-13T10:39:52;21.90;99.90
23827;DHT22;12094;50.822;4.376;2023-07-13T10:42:38;21.80;99.90
23827;DHT22;12094;50.822;4.376;2023-07-13T10:45:20;21.90;99.90
23827;DHT22;12094;50.822;4.376;2023-07-13T10:47:53;21.80;99.90
23827;DHT22;12094;50.822;4.376;2023-07-13T10:50:25;21.60;99.90
23827;DHT22;12094;50.822;4.376;2023-07-13T10:52:55;21.50;99.90
23827;DHT22;12094;50.822;4.376;2023-07-13T10:55:33;21.10;99.90
23827;DHT22;12094;50.822;4.376;2023-07-13T11:03:32;21.20;99.90
23827;DHT22;12094;50.822;4.376;2023-07-13T11:06:12;21.40;99.90
23827;DHT22;12094;50.822;4.376;2023-07-13T11:11:37;21.90;99.90
23827;DHT22;12094;50.822;4.376;2023-07-13T11:14:28;22.00;99.90
23827;DHT22;12094;50.822;4.376;2023-07-13T11:16:56;21.90;99.90
23827;DHT22;12094;50.822;4.376;2023-07-13T11:19:24;22.10;99.90
23827;DHT22;12094;50.822;4.376;2023-07-13T11:22:25;21.90;99.90
23827;DHT22;12094;50.822;4.376;2023-07-13T11:25:28;21.90;99.90
23827;DHT22;12094;50.822;4.376;2023-07-13T11:30:59;22.40;99.90
23827;DHT22;12094;50.822;4.376;2023-07-13T11:36:14;22.90;99.90
23827;DHT22;12094;50.822;4.376;2023-07-13T11:39:29;22.70;99.90
23827;DHT22;12094;50.822;4.376;2023-07-13T11:41:43;22.90;99.90
23827;DHT22;12094;50.822;4.376;2023-07-13T11:44:14;22.40;99.90
23827;DHT22;12094;50.822;4.376;2023-07-13T11:46:50;22.10;99.90
23827;DHT22;12094;50.822;4.376;2023-07-13T11:49:23;21.80;99.90
23827;DHT22;12094;50.822;4.376;2023-07-13T11:51:52;22.10;99.90
23827;DHT22;12094;50.822;4.376;2023-07-13T11:54:28;22.30;99.90
23827;DHT22;12094;50.822;4.376;2023-07-13T11:57:34;22.50;99.90
23827;DHT22;12094;50.822;4.376;2023-07-13T12:00:11;22.20;99.90
23827;DHT22;12094;50.822;4.376;2023-07-13T12:02:45;21.90;99.90
23827;DHT22;12094;50.822;4.376;2023-07-13T12:05:15;21.60;99.90
23827;DHT22;12094;50.822;4.376;2023-07-13T12:07:42;21.40;99.90
23827;DHT22;12094;50.822;4.376;2023-07-13T12:12:50;21.30;99.90
23827;DHT22;12094;50.822;4.376;2023-07-13T12:15:18;21.20;99.90
23827;DHT22;12094;50.822;4.376;2023-07-13T12:17:46;21.30;99.90
23827;DHT22;12094;50.822;4.376;2023-07-13T12:20:26;21.50;99.90
23827;DHT22;12094;50.822;4.376;2023-07-13T12:22:53;21.70;99.90
23827;DHT22;12094;50.822;4.376;2023-07-13T12:25:22;21.90;99.90
23827;DHT22;12094;50.822;4.376;2023-07-13T12:27:51;22.20;99.90
23827;DHT22;12094;50.822;4.376;2023-07-13T12:30:32;22.40;99.90
23827;DHT22;12094;50.822;4.376;2023-07-13T12:33:12;22.40;99.90
23827;DHT22;12094;50.822;4.376;2023-07-13T12:35:49;22.20;99.90
23827;DHT22;12094;50.822;4.376;2023-07-13T12:38:18;21.60;99.90
23827;DHT22;12094;50.822;4.376;2023-07-13T12:40:52;21.00;99.90
23827;DHT22;12094;50.822;4.376;2023-07-13T12:43:33;20.60;99.90
23827;DHT22;12094;50.822;4.376;2023-07-13T12:48:51;20.20;99.90
23827;DHT22;12094;50.822;4.376;2023-07-13T12:51:34;20.10;99.90
23827;DHT22;12094;50.822;4.376;2023-07-13T12:54:17;19.90;99.90
23827;DHT22;12094;50.822;4.376;2023-07-13T12:56:49;19.50;99.90
23827;DHT22;12094;50.822;4.376;2023-07-13T12:59:21;19.00;99.90
23827;DHT22;12094;50.822;4.376;2023-07-13T13:01:49;18.90;99.90
23827;DHT22;12094;50.822;4.376;2023-07-13T13:04:17;18.80;99.90
23827;DHT22;12094;50.822;4.376;2023-07-13T13:06:49;18.80;99.90
23827;DHT22;12094;50.822;4.376;2023-07-13T13:09:27;18.90;99.90
23827;DHT22;12094;50.822;4.376;2023-07-13T13:11:54;19.80;99.90
23827;DHT22;12094;50.822;4.376;2023-07-13T13:14:21;20.80;99.90
23827;DHT22;12094;50.822;4.376;2023-07-13T13:16:50;21.60;99.90
23827;DHT22;12094;50.822;4.376;2023-07-13T13:19:18;22.20;99.90
23827;DHT22;12094;50.822;4.376;2023-07-13T13:21:48;22.20;99.90
23827;DHT22;12094;50.822;4.376;2023-07-13T13:24:24;22.20;99.90
23827;DHT22;12094;50.822;4.376;2023-07-13T13:26:53;22.20;99.90
23827;DHT22;12094;50.822;4.376;2023-07-13T13:29:23;22.30;99.90
23827;DHT22;12094;50.822;4.376;2023-07-13T13:31:52;22.40;99.90
23827;DHT22;12094;50.822;4.376;2023-07-13T13:34:21;22.60;99.90
23827;DHT22;12094;50.822;4.376;2023-07-13T13:36:51;22.50;99.90
23827;DHT22;12094;50.822;4.376;2023-07-13T13:39:30;22.90;99.90
23827;DHT22;12094;50.822;4.376;2023-07-13T13:41:59;23.60;99.90
23827;DHT22;12094;50.822;4.376;2023-07-13T13:44:26;24.50;99.90
23827;DHT22;12094;50.822;4.376;2023-07-13T13:46:55;25.10;99.90
23827;DHT22;12094;50.822;4.376;2023-07-13T13:49:24;25.60;99.90
23827;DHT22;12094;50.822;4.376;2023-07-13T13:51:53;25.20;99.90
23827;DHT22;12094;50.822;4.376;2023-07-13T13:54:21;24.80;99.90
23827;DHT22;12094;50.822;4.376;2023-07-13T13:56:50;24.80;99.90
23827;DHT22;12094;50.822;4.376;2023-07-13T13:59:18;23.70;99.90
23827;DHT22;12094;50.822;4.376;2023-07-13T14:01:46;23.40;99.90
23827;DHT22;12094;50.822;4.376;2023-07-13T14:04:20;23.10;99.90
23827;DHT22;12094;50.822;4.376;2023-07-13T14:06:53;22.90;99.90
23827;DHT22;12094;50.822;4.376;2023-07-13T14:09:21;22.60;99.90
23827;DHT22;12094;50.822;4.376;2023-07-13T14:11:49;22.20;99.90
23827;DHT22;12094;50.822;4.376;2023-07-13T14:14:23;22.10;99.90
23827;DHT22;12094;50.822;4.376;2023-07-13T14:16:51;22.20;99.90
23827;DHT22;12094;50.822;4.376;2023-07-13T14:19:22;22.20;99.90
23827;DHT22;12094;50.822;4.376;2023-07-13T14:21:50;22.50;99.90
23827;DHT22;12094;50.822;4.376;2023-07-13T14:24:20;22.50;99.90
23827;DHT22;12094;50.822;4.376;2023-07-13T14:26:48;22.30;99.90
23827;DHT22;12094;50.822;4.376;2023-07-13T14:29:18;22.00;99.90
23827;DHT22;12094;50.822;4.376;2023-07-13T14:31:50;21.70;99.90
23827;DHT22;12094;50.822;4.376;2023-07-13T14:34:19;21.30;99.90
23827;DHT22;12094;50.822;4.376;2023-07-13T14:36:48;21.10;99.90
23827;DHT22;12094;50.822;4.376;2023-07-13T14:39:17;21.10;99.90
23827;DHT22;12094;50.822;4.376;2023-07-13T14:41:45;21.00;99.90
23827;DHT22;12094;50.822;4.376;2023-07-13T14:44:16;21.10;99.90
23827;DHT22;12094;50.822;4.376;2023-07-13T14:46:45;21.40;99.90
23827;DHT22;12094;50.822;4.376;2023-07-13T14:49:27;21.70;99.90
23827;DHT22;12094;50.822;4.376;2023-07-13T14:51:59;22.00;99.90
23827;DHT22;12094;50.822;4.376;2023-07-13T14:54:27;22.00;99.90
23827;DHT22;12094;50.822;4.376;2023-07-13T14:56:54;22.10;99.90
23827;DHT22;12094;50.822;4.376;2023-07-13T14:59:21;22.00;99.90
23827;DHT22;12094;50.822;4.376;2023-07-13T15:01:49;22.00;99.90
23827;DHT22;12094;50.822;4.376;2023-07-13T15:04:19;22.20;99.90
23827;DHT22;12094;50.822;4.376;2023-07-13T15:06:59;22.60;99.90
23827;DHT22;12094;50.822;4.376;2023-07-13T15:09:27;22.70;99.90
23827;DHT22;12094;50.822;4.376;2023-07-13T15:11:57;22.70;99.90
23827;DHT22;12094;50.822;4.376;2023-07-13T15:14:27;23.10;99.90
23827;DHT22;12094;50.822;4.376;2023-07-13T15:16:57;23.60;99.90
23827;DHT22;12094;50.822;4.376;2023-07-13T15:19:25;23.70;99.90
23827;DHT22;12094;50.822;4.376;2023-07-13T15:21:55;23.60;99.90
23827;DHT22;12094;50.822;4.376;2023-07-13T15:24:27;23.40;99.90
23827;DHT22;12094;50.822;4.376;2023-07-13T15:26:55;23.30;99.90
23827;DHT22;12094;50.822;4.376;2023-07-13T15:29:22;23.40;99.90
23827;DHT22;12094;50.822;4.376;2023-07-13T15:31:50;23.40;99.90
23827;DHT22;12094;50.822;4.376;2023-07-13T15:34:22;23.40;99.90
23827;DHT22;12094;50.822;4.376;2023-07-13T15:36:51;23.30;99.90
23827;DHT22;12094;50.822;4.376;2023-07-13T15:39:19;23.20;99.90
23827;DHT22;12094;50.822;4.376;2023-07-13T15:41:47;23.20;99.90
23827;DHT22;12094;50.822;4.376;2023-07-13T15:44:31;23.30;99.90
23827;DHT22;12094;50.822;4.376;2023-07-13T15:46:58;23.60;99.90
23827;DHT22;12094;50.822;4.376;2023-07-13T15:49:31;23.80;99.90
23827;DHT22;12094;50.822;4.376;2023-07-13T15:51:58;23.70;99.90
23827;DHT22;12094;50.822;4.376;2023-07-13T15:54:25;23.70;99.90
23827;DHT22;12094;50.822;4.376;2023-07-13T15:56:54;24.00;99.90
23827;DHT22;12094;50.822;4.376;2023-07-13T15:59:22;24.20;99.90
23827;DHT22;12094;50.822;4.376;2023-07-13T16:01:49;24.20;99.90
23827;DHT22;12094;50.822;4.376;2023-07-13T16:04:17;24.00;99.90
23827;DHT22;12094;50.822;4.376;2023-07-13T16:06:49;23.70;99.90
23827;DHT22;12094;50.822;4.376;2023-07-13T16:09:20;23.50;99.90
23827;DHT22;12094;50.822;4.376;2023-07-13T16:11:51;23.50;99.90
23827;DHT22;12094;50.822;4.376;2023-07-13T16:14:20;23.30;99.90
23827;DHT22;12094;50.822;4.376;2023-07-13T16:16:51;23.50;99.90
23827;DHT22;12094;50.822;4.376;2023-07-13T16:19:26;23.60;99.90
23827;DHT22;12094;50.822;4.376;2023-07-13T16:21:56;23.40;99.90
23827;DHT22;12094;50.822;4.376;2023-07-13T16:24:24;23.20;99.90
23827;DHT22;12094;50.822;4.376;2023-07-13T16:26:53;23.10;99.90
23827;DHT22;12094;50.822;4.376;2023-07-13T16:29:26;23.20;99.90
23827;DHT22;12094;50.822;4.376;2023-07-13T16:34:34;23.30;99.90
23827;DHT22;12094;50.822;4.376;2023-07-13T16:37:03;23.30;99.90
23827;DHT22;12094;50.822;4.376;2023-07-13T16:39:37;23.40;99.90
23827;DHT22;12094;50.822;4.376;2023-07-13T16:42:04;23.60;99.90
23827;DHT22;12094;50.822;4.376;2023-07-13T16:44:32;23.80;99.90
23827;DHT22;12094;50.822;4.376;2023-07-13T16:46:59;23.70;99.90
23827;DHT22;12094;50.822;4.376;2023-07-13T16:49:34;24.10;99.90
23827;DHT22;12094;50.822;4.376;2023-07-13T16:52:06;24.40;99.90